createdAt,value
2022-07-29T00:06:32.830Z,98902.24
2022-07-29T00:17:01.842Z,98899.80
2022-07-29T00:27:30.728Z,98892.36
2022-07-29T00:37:59.879Z,98888.68
2022-07-29T00:48:30.946Z,98885.15
2022-07-29T00:59:01.290Z,98874.09
2022-07-29T01:09:42.106Z,98866.27
2022-07-29T01:20:20.870Z,98863.20
2022-07-29T01:30:53.350Z,98865.63
2022-07-29T01:41:24.401Z,98855.34
2022-07-29T01:51:57.195Z,98852.29
2022-07-29T02:02:27.297Z,98847.64
2022-07-29T02:12:57.684Z,98847.50
2022-07-29T02:23:28.167Z,98850.17
2022-07-29T02:33:58.679Z,98843.76
2022-07-29T02:44:34.164Z,98824.70
2022-07-29T02:55:12.164Z,98828.27
2022-07-29T03:05:42.467Z,98815.73
2022-07-29T03:16:14.279Z,98815.31
2022-07-29T03:26:43.431Z,98812.69
2022-07-29T03:37:12.220Z,98815.46
2022-07-29T03:47:51.140Z,98825.60
2022-07-29T03:58:23.696Z,98824.48
2022-07-29T04:08:52.598Z,98819.17
2022-07-29T04:19:21.511Z,98830.27
2022-07-29T04:29:56.480Z,98820.06
2022-07-29T04:40:26.395Z,98806.52
2022-07-29T04:50:55.434Z,98801.59
2022-07-29T05:01:24.853Z,98808.17
2022-07-29T05:11:54.058Z,98802.77
2022-07-29T05:22:23.582Z,98805.72
2022-07-29T05:32:52.786Z,98807.61
2022-07-29T05:43:22.416Z,98803.07
2022-07-29T05:53:52.632Z,98808.08
2022-07-29T06:04:21.943Z,98804.71
2022-07-29T06:14:54.245Z,98793.80
2022-07-29T06:25:24.016Z,98785.44
2022-07-29T06:35:55.140Z,98787.38
2022-07-29T06:46:26.413Z,98805.61
2022-07-29T06:56:55.438Z,98806.15
2022-07-29T07:07:24.639Z,98794.65
2022-07-29T07:17:53.753Z,98801.85
2022-07-29T07:28:24.600Z,98802.31
2022-07-29T07:38:53.633Z,98805.65
2022-07-29T07:49:22.659Z,98800.05
2022-07-29T07:59:51.725Z,98797.52
2022-07-29T08:10:35.560Z,98798.62
2022-07-29T08:21:04.465Z,98795.75
2022-07-29T08:31:33.515Z,98791.11
2022-07-29T08:42:02.718Z,98798.25
2022-07-29T08:52:35.302Z,98796.26
2022-07-29T09:03:04.815Z,98791.60
2022-07-29T09:13:33.804Z,98793.23
2022-07-29T09:24:11.342Z,98784.56
2022-07-29T09:34:40.717Z,98777.58
2022-07-29T09:45:11.777Z,98768.63
2022-07-29T09:55:53.441Z,98763.45
2022-07-29T10:06:23.067Z,98752.44
2022-07-29T10:16:52.584Z,98750.13
2022-07-29T10:27:22.006Z,98748.21
2022-07-29T10:38:16.514Z,98742.73
2022-07-29T10:49:08.732Z,98739.39
2022-07-29T10:59:38.517Z,98730.48
2022-07-29T11:10:31.246Z,98727.34
2022-07-29T11:21:01.811Z,98728.85
2022-07-29T11:31:44.245Z,98725.89
2022-07-29T11:42:44.569Z,98724.92
2022-07-29T11:53:17.445Z,98718.77
2022-07-29T12:03:46.578Z,98715.30
2022-07-29T12:14:30.785Z,98707.11
2022-07-29T12:25:31.939Z,98707.79
2022-07-29T12:36:07.189Z,98705.67
2022-07-29T12:46:40.088Z,98701.06
2022-07-29T12:57:09.197Z,98690.70
2022-07-29T13:07:55.291Z,98680.77
2022-07-29T13:18:33.455Z,98674.22
2022-07-29T13:29:02.536Z,98662.72
2022-07-29T13:39:31.885Z,98639.86
2022-07-29T13:50:00.937Z,98629.45
2022-07-29T14:00:30.090Z,98613.81
2022-07-29T14:10:59.311Z,98603.90
2022-07-29T14:21:28.427Z,98592.34
2022-07-29T14:31:57.798Z,98581.63
2022-07-29T14:42:26.984Z,98575.02
2022-07-29T14:52:55.932Z,98580.25
2022-07-29T15:03:25.992Z,98580.86
2022-07-29T15:13:55.044Z,98588.82
2022-07-29T15:24:24.274Z,98605.86
2022-07-29T15:34:53.132Z,98621.84
2022-07-29T15:45:22.200Z,98621.13
2022-07-29T15:55:51.056Z,98622.77
2022-07-29T16:06:20.371Z,98634.30
2022-07-29T16:16:49.613Z,98645.89
2022-07-29T16:27:18.564Z,98633.38
2022-07-29T16:37:47.493Z,98617.80
2022-07-29T16:48:18.706Z,98621.33
2022-07-29T16:58:47.701Z,98620.01
2022-07-29T17:09:16.881Z,98614.91
2022-07-29T17:19:47.128Z,98624.16
2022-07-29T17:30:16.702Z,98652.15
2022-07-29T17:40:45.498Z,98657.65
2022-07-29T17:51:15.574Z,98656.94
2022-07-29T18:01:44.762Z,98646.89
2022-07-29T18:12:14.231Z,98649.00
2022-07-29T18:22:45.293Z,98651.66
2022-07-29T18:33:22.116Z,98660.38
2022-07-29T18:43:51.396Z,98663.98
2022-07-29T18:54:20.675Z,98674.59
2022-07-29T19:04:51.148Z,98674.03
2022-07-29T19:15:20.696Z,98694.45
2022-07-29T19:25:53.760Z,98687.69
2022-07-29T19:36:23.255Z,98678.69
2022-07-29T19:46:52.144Z,98701.02
2022-07-29T19:57:21.346Z,98698.33
2022-07-29T20:07:50.408Z,98670.67
2022-07-29T20:18:20.629Z,98671.30
2022-07-29T20:28:49.789Z,98667.65
2022-07-29T20:39:19.031Z,98655.16
2022-07-29T20:49:50.010Z,98636.83
2022-07-29T21:00:19.547Z,98624.73
2022-07-29T21:10:48.540Z,98623.05
2022-07-29T21:21:18.400Z,98617.11
2022-07-29T21:31:47.258Z,98625.65
2022-07-29T21:42:16.056Z,98620.34
2022-07-29T21:52:45.020Z,98606.75
2022-07-29T22:03:14.127Z,98601.63
2022-07-29T22:13:43.060Z,98610.17
2022-07-29T22:24:12.862Z,98610.58
2022-07-29T22:34:41.753Z,98593.48
2022-07-29T22:45:12.529Z,98587.77
2022-07-29T22:55:41.455Z,98574.86
2022-07-29T23:06:10.529Z,98555.72
2022-07-29T23:16:39.486Z,98541.11
2022-07-29T23:27:08.711Z,98526.16
2022-07-29T23:37:38.068Z,98511.63
2022-07-29T23:48:07.389Z,98503.39
2022-07-29T23:58:36.932Z,98489.16
